METAR Data
IDs: Format: Raw Decoded Include TAF

Data at: 1058 UTC 26 Sep 2018

KITR 261053Z AUTO 22005KT 10SM CLR 03/M01 A3031 RMK AO2 SLP248 T00281011
KITR 260953Z AUTO 25004KT 10SM CLR 02/M02 A3031 RMK AO2 SLP246 T00171022
KITR 260853Z AUTO 22005KT 10SM CLR 02/M02 A3032 RMK AO2 SLP249 T00171022 58004
KITR 260753Z AUTO 23003KT 10SM CLR 02/M02 A3032 RMK AO2 SLP250 T00221022
KITR 260653Z AUTO 14003KT 10SM CLR 04/M02 A3033 RMK AO2 SLP251 T00441022 401940017
KITR 260553Z AUTO 10004KT 10SM CLR 04/M03 A3033 RMK AO2 SLP254 T00391033 10167 20017 51007
KITR 260453Z AUTO 00000KT 9SM CLR 04/M02 A3033 RMK AO2 SLP257 T00391022
KITR 260353Z AUTO 00000KT 10SM CLR 03/M03 A3033 RMK AO2 SLP262 T00331028
KITR 260253Z AUTO 07003KT 10SM CLR 06/M03 A3031 RMK AO2 SLP253 T00611028 51027
KITR 260153Z AUTO 00000KT 7SM CLR 07/M03 A3028 RMK AO2 SLP243 T00721028
KITR 260053Z AUTO 03006KT 10SM CLR 12/M03 A3025 RMK AO2 SLP222 T01221028
KITR 252353Z AUTO 03011KT 10SM CLR 17/M03 A3022 RMK AO2 SLP203 T01671033 10194 20161 53011
KITR 252253Z AUTO 02013G22KT 10SM CLR 18/M04 A3020 RMK AO2 PK WND 35030/2159 SLP196 T01781039
KITR 252153Z AUTO 01016G27KT 10SM CLR 19/M04 A3019 RMK AO2 PK WND 36029/2112 SLP193 T01891039
KITR 252053Z AUTO 36018G27KT 10SM CLR 19/M02 A3018 RMK AO2 PK WND 01031/2003 SLP190 T01891022 56009
KITR 251953Z AUTO 34018G29KT 10SM CLR 19/M02 A3018 RMK AO2 PK WND 35031/1907 SLP189 T01891022
KITR 251853Z AUTO 35020G32KT 10SM CLR 18/M02 A3019 RMK AO2 PK WND 36034/1833 SLP193 T01831017
KITR 251753Z AUTO 36017G31KT 10SM CLR 17/02 A3021 RMK AO2 PK WND 36033/1728 SLP197 T01670017 10167 20100 51007
KITR 251653Z AUTO 01020G33KT 10SM CLR 14/02 A3021 RMK AO2 PK WND 35035/1615 SLP199 T01440022
KITR 251553Z AUTO 35019G32KT 10SM CLR 12/04 A3020 RMK AO2 PK WND 35033/1522 SLP199 T01220039
KITR 251453Z AUTO 34020G29KT 10SM CLR 11/04 A3019 RMK AO2 PK WND 34033/1429 SLP195 T01060044
KITR 251353Z AUTO 35014G26KT 10SM 10/06 A3016 RMK AO2 PK WND 36026/1349 SLP189 T01000061 $
KITR 251321Z AUTO 36015G27KT 10SM SCT011 OVC022 10/07 A3015 RMK AO2 PK WND 34033/1302 T01000067
KITR 251253Z AUTO 35022G34KT 10SM OVC012 10/07 A3014 RMK AO2 PK WND 35038/1238 SLP175 T01000072
KITR 251153Z AUTO 34025G38KT 10SM OVC014 12/08 A3009 RMK AO2 PK WND 33038/1153 SLP151 T01170083 10139 20083 53044
KITR 251138Z AUTO 34018G27KT 10SM BKN014 BKN029 12/09 A3008 RMK AO2 PK WND 34027/1137 T01170089
KITR 251130Z AUTO 34016G26KT 10SM FEW016 SCT027 12/09 A3007 RMK AO2 PK WND 34026/1121 T01170089
KITR 251053Z AUTO 34012KT 10SM BKN022 BKN026 BKN095 12/08 A3005 RMK AO2 SLP134 T01170083
KITR 250953Z AUTO 26003KT 10SM CLR 09/07 A2997 RMK AO2 SLP110 T00890072
KITR 250853Z AUTO 35003KT 10SM FEW120 09/07 A2995 RMK AO2 SLP099 T00940067 53005
KITR 250753Z AUTO 34008KT 10SM CLR 11/07 A2995 RMK AO2 SLP101 T01060072
KITR 250653Z AUTO 07004KT 10SM CLR 12/07 A2992 RMK AO2 SLP089 T01170072 402610100
KITR 250553Z AUTO 13008KT 10SM CLR 14/08 A2993 RMK AO2 SLP092 T01390078 10222 20133 58009
KITR 250453Z AUTO 11005KT 10SM FEW120 14/07 A2994 RMK AO2 SLP097 T01390072
KITR 250353Z AUTO 09003KT 10SM CLR 16/07 A2996 RMK AO2 SLP106 T01560072
KITR 250253Z AUTO 06006KT 10SM FEW110 16/07 A2996 RMK AO2 SLP110 T01560067 53022
KITR 250153Z AUTO 09005KT 10SM CLR 16/06 A2993 RMK AO2 SLP103 T01560056
KITR 250053Z AUTO 11006KT 10SM CLR 19/06 A2990 RMK AO2 SLP085 T01940056
KITR 242353Z AUTO 11008KT 10SM CLR 22/05 A2989 RMK AO2 SLP083 T02220050 10261 20222 57007